createdAt,value
2022-12-06T00:00:14.192Z,11
2022-12-06T00:01:14.191Z,11
2022-12-06T00:02:14.259Z,12
2022-12-06T00:03:14.262Z,12
2022-12-06T00:04:14.183Z,12
2022-12-06T00:05:14.182Z,11
2022-12-06T00:06:14.197Z,11
2022-12-06T00:07:14.200Z,11
2022-12-06T00:08:14.290Z,12
2022-12-06T00:09:14.188Z,12
2022-12-06T00:10:14.205Z,12
2022-12-06T00:11:14.201Z,11
2022-12-06T00:12:14.199Z,12
2022-12-06T00:13:14.221Z,11
2022-12-06T00:14:14.219Z,10
2022-12-06T00:15:14.196Z,12
2022-12-06T00:16:14.218Z,11
2022-12-06T00:17:14.196Z,11
2022-12-06T00:18:14.195Z,12
2022-12-06T00:19:14.197Z,12
2022-12-06T00:20:14.196Z,11
2022-12-06T00:21:14.215Z,12
2022-12-06T00:23:14.208Z,12
2022-12-06T00:24:14.201Z,11
2022-12-06T00:25:14.196Z,11
2022-12-06T00:26:14.200Z,12
2022-12-06T00:27:14.214Z,12
2022-12-06T00:28:14.201Z,11
2022-12-06T00:29:14.229Z,12
2022-12-06T00:30:14.201Z,11
2022-12-06T00:31:14.207Z,12
2022-12-06T00:32:19.238Z,11
2022-12-06T00:33:14.217Z,11
2022-12-06T00:34:14.202Z,11
2022-12-06T00:35:14.198Z,11
2022-12-06T00:36:14.199Z,11
2022-12-06T00:37:14.199Z,10
2022-12-06T00:38:14.196Z,11
2022-12-06T00:39:14.198Z,11
2022-12-06T00:40:14.218Z,10
2022-12-06T00:41:14.214Z,12
2022-12-06T00:42:14.204Z,10
2022-12-06T00:43:14.189Z,11
2022-12-06T00:44:14.214Z,11
2022-12-06T00:46:14.320Z,11
2022-12-06T00:47:14.214Z,10
2022-12-06T00:48:14.201Z,10
2022-12-06T00:49:14.197Z,11
2022-12-06T00:50:14.192Z,11
2022-12-06T00:51:14.214Z,10
2022-12-06T00:52:14.210Z,11
2022-12-06T00:53:14.215Z,12
2022-12-06T00:54:14.204Z,10
2022-12-06T00:55:14.210Z,11
2022-12-06T00:56:14.206Z,11
2022-12-06T00:57:14.209Z,11
2022-12-06T00:58:14.207Z,11
2022-12-06T00:59:14.201Z,12
2022-12-06T01:00:14.231Z,11
2022-12-06T01:01:14.262Z,11
2022-12-06T01:02:14.229Z,10
2022-12-06T01:03:14.284Z,11
2022-12-06T01:04:14.208Z,11
2022-12-06T01:05:14.211Z,11
2022-12-06T01:06:14.216Z,11
2022-12-06T01:07:14.196Z,11
2022-12-06T01:08:14.286Z,11
2022-12-06T01:09:14.210Z,11
2022-12-06T01:10:14.235Z,11
2022-12-06T01:11:14.205Z,11
2022-12-06T01:12:14.200Z,12
2022-12-06T01:13:14.202Z,11
2022-12-06T01:14:14.207Z,12
2022-12-06T01:15:14.213Z,11
2022-12-06T01:16:14.299Z,12
2022-12-06T01:17:14.212Z,11
2022-12-06T01:18:14.207Z,12
2022-12-06T01:19:14.242Z,11
2022-12-06T01:20:14.202Z,11
2022-12-06T01:21:14.195Z,12
2022-12-06T01:23:14.213Z,12
2022-12-06T01:24:14.202Z,11
2022-12-06T01:25:14.212Z,12
2022-12-06T01:26:14.210Z,11
2022-12-06T01:27:14.222Z,11
2022-12-06T01:28:14.220Z,13
2022-12-06T01:29:14.203Z,12
2022-12-06T01:30:14.215Z,12
2022-12-06T01:31:14.345Z,12
2022-12-06T01:32:14.211Z,11
2022-12-06T01:33:14.225Z,12
2022-12-06T01:34:14.215Z,11
2022-12-06T01:36:14.214Z,11
2022-12-06T01:37:14.224Z,11
2022-12-06T01:38:14.221Z,12
2022-12-06T01:39:14.205Z,12
2022-12-06T01:40:14.198Z,12
2022-12-06T01:41:14.202Z,12
2022-12-06T01:42:14.221Z,11
2022-12-06T01:43:14.220Z,11
2022-12-06T01:44:18.489Z,11
2022-12-06T01:45:14.246Z,13
2022-12-06T01:46:14.258Z,11
2022-12-06T01:47:14.206Z,13
2022-12-06T01:48:14.209Z,12
2022-12-06T01:49:14.241Z,12
2022-12-06T01:50:14.211Z,12
2022-12-06T01:51:14.220Z,12
2022-12-06T01:52:14.218Z,13
2022-12-06T01:53:14.230Z,12
2022-12-06T01:54:14.201Z,13
2022-12-06T01:55:14.216Z,11
2022-12-06T01:56:14.215Z,12
2022-12-06T01:57:14.212Z,11
2022-12-06T01:58:14.227Z,12
2022-12-06T01:59:14.216Z,12
2022-12-06T02:00:14.226Z,13
2022-12-06T02:01:14.275Z,12
2022-12-06T02:02:14.269Z,12
2022-12-06T02:03:14.221Z,12
2022-12-06T02:04:14.235Z,12
2022-12-06T02:05:14.255Z,12
2022-12-06T02:06:14.233Z,12
2022-12-06T02:07:14.227Z,12
2022-12-06T02:08:14.325Z,12
2022-12-06T02:09:14.212Z,12
2022-12-06T02:10:14.204Z,12
2022-12-06T02:11:14.209Z,12
2022-12-06T02:12:14.228Z,11
2022-12-06T02:13:14.232Z,12
2022-12-06T02:14:14.205Z,12
2022-12-06T02:15:14.207Z,13
2022-12-06T02:16:14.251Z,13
2022-12-06T02:17:14.292Z,12
2022-12-06T02:18:14.211Z,12
2022-12-06T02:20:14.208Z,12
2022-12-06T02:22:14.221Z,12
2022-12-06T02:23:14.207Z,12
2022-12-06T02:24:14.223Z,13
2022-12-06T02:25:14.227Z,12
2022-12-06T02:26:14.204Z,13
2022-12-06T02:27:14.203Z,13
2022-12-06T02:28:14.212Z,13
2022-12-06T02:29:14.247Z,13
2022-12-06T02:30:14.229Z,12
2022-12-06T02:31:14.308Z,13
2022-12-06T02:32:14.231Z,13
2022-12-06T02:33:14.260Z,13
2022-12-06T02:34:14.231Z,13
2022-12-06T02:35:14.228Z,13
2022-12-06T02:36:14.219Z,13
2022-12-06T02:37:14.215Z,12
2022-12-06T02:38:14.244Z,14
2022-12-06T02:39:14.275Z,13
2022-12-06T02:40:14.235Z,13
2022-12-06T02:41:14.235Z,13
2022-12-06T02:42:14.226Z,12
2022-12-06T02:43:14.262Z,13
2022-12-06T02:44:14.234Z,12
2022-12-06T02:45:14.244Z,14
2022-12-06T02:46:14.374Z,13
2022-12-06T02:47:14.249Z,13
2022-12-06T02:49:14.216Z,14
2022-12-06T02:50:14.240Z,14
2022-12-06T02:51:14.221Z,13
2022-12-06T02:52:14.238Z,13
2022-12-06T02:53:14.229Z,13
2022-12-06T02:54:14.224Z,12
2022-12-06T02:55:14.217Z,14
2022-12-06T02:56:14.213Z,14
2022-12-06T02:57:14.236Z,13
2022-12-06T02:58:14.234Z,13
2022-12-06T02:59:14.235Z,14
2022-12-06T03:00:14.212Z,13
2022-12-06T03:01:14.275Z,12
2022-12-06T03:02:14.302Z,13
2022-12-06T03:03:14.237Z,13
2022-12-06T03:04:14.263Z,14
2022-12-06T03:05:14.236Z,15
2022-12-06T03:06:14.288Z,12
2022-12-06T03:07:14.236Z,14
2022-12-06T03:08:14.300Z,13
2022-12-06T03:09:14.254Z,13
2022-12-06T03:10:14.218Z,12
2022-12-06T03:11:14.241Z,14
2022-12-06T03:12:14.232Z,14
2022-12-06T03:13:14.226Z,14
2022-12-06T03:14:15.003Z,13
2022-12-06T03:15:14.227Z,13
2022-12-06T03:16:14.321Z,13
2022-12-06T03:17:14.227Z,14
2022-12-06T03:18:14.224Z,14
2022-12-06T03:19:14.238Z,13
2022-12-06T03:20:14.233Z,13
2022-12-06T03:21:14.232Z,14
2022-12-06T03:22:14.223Z,14
2022-12-06T03:23:14.237Z,13
2022-12-06T03:24:14.237Z,13
2022-12-06T03:25:14.238Z,13
2022-12-06T03:26:14.231Z,14
2022-12-06T03:27:14.239Z,13
2022-12-06T03:28:14.243Z,13
2022-12-06T03:29:14.227Z,13
2022-12-06T03:30:14.230Z,13
2022-12-06T03:31:14.374Z,12
2022-12-06T03:32:14.238Z,13
2022-12-06T03:33:14.307Z,13
2022-12-06T03:34:14.237Z,13
2022-12-06T03:35:14.252Z,14
2022-12-06T03:36:14.243Z,13
2022-12-06T03:37:14.235Z,14
2022-12-06T03:38:14.242Z,13
2022-12-06T03:40:14.229Z,13
2022-12-06T03:41:14.247Z,13
2022-12-06T03:42:14.247Z,14
2022-12-06T03:43:14.254Z,14
2022-12-06T03:44:14.232Z,14
2022-12-06T03:45:14.310Z,14
2022-12-06T03:46:14.300Z,14
2022-12-06T03:47:16.061Z,14
2022-12-06T03:48:14.229Z,15
2022-12-06T03:49:14.237Z,13
2022-12-06T03:50:14.243Z,14
2022-12-06T03:51:14.249Z,14
2022-12-06T03:52:14.243Z,14
2022-12-06T03:53:14.245Z,13
2022-12-06T03:55:14.235Z,14
2022-12-06T03:56:14.233Z,12
2022-12-06T03:57:14.236Z,13
2022-12-06T03:58:14.235Z,13
2022-12-06T03:59:14.234Z,13
2022-12-06T04:00:14.230Z,12
2022-12-06T04:01:14.238Z,12
2022-12-06T04:02:14.326Z,13
2022-12-06T04:03:14.233Z,12
2022-12-06T04:04:14.305Z,14
2022-12-06T04:05:14.246Z,13
2022-12-06T04:06:14.268Z,13
2022-12-06T04:07:14.253Z,13
2022-12-06T04:08:14.284Z,12
2022-12-06T04:09:14.246Z,13
2022-12-06T04:10:14.239Z,13
2022-12-06T04:11:14.231Z,13
2022-12-06T04:12:14.233Z,13
2022-12-06T04:13:18.202Z,13
2022-12-06T04:14:14.229Z,14
2022-12-06T04:15:14.233Z,14
2022-12-06T04:16:14.279Z,13
2022-12-06T04:17:14.237Z,14
2022-12-06T04:18:14.525Z,13
2022-12-06T04:19:14.266Z,13
2022-12-06T04:20:14.249Z,14
2022-12-06T04:21:14.254Z,14
2022-12-06T04:22:14.234Z,12
2022-12-06T04:23:14.241Z,12
2022-12-06T04:24:14.247Z,13
2022-12-06T04:25:14.239Z,13
2022-12-06T04:26:14.232Z,13
2022-12-06T04:27:14.229Z,13
2022-12-06T04:28:14.237Z,12
2022-12-06T04:29:14.244Z,13
2022-12-06T04:30:14.237Z,13
2022-12-06T04:31:20.080Z,14
2022-12-06T04:32:14.261Z,13
2022-12-06T04:33:14.252Z,13
2022-12-06T04:34:14.243Z,13
2022-12-06T04:35:14.247Z,12
2022-12-06T04:36:14.267Z,12
2022-12-06T04:37:14.259Z,12
2022-12-06T04:38:14.233Z,12
2022-12-06T04:40:14.241Z,13
2022-12-06T04:41:14.246Z,12
2022-12-06T04:42:14.248Z,12
2022-12-06T04:43:14.316Z,12
2022-12-06T04:44:14.252Z,13
2022-12-06T04:45:14.249Z,12
2022-12-06T04:46:14.294Z,13
2022-12-06T04:47:14.259Z,12
2022-12-06T04:48:14.251Z,13
2022-12-06T04:49:14.256Z,12
2022-12-06T04:50:14.240Z,12
2022-12-06T04:51:14.250Z,11
2022-12-06T04:52:14.265Z,12
2022-12-06T04:53:14.251Z,12
2022-12-06T04:54:14.253Z,12
2022-12-06T04:55:14.267Z,12
2022-12-06T04:56:14.232Z,12
2022-12-06T04:57:14.256Z,12
2022-12-06T04:58:14.250Z,12
2022-12-06T04:59:14.255Z,11
2022-12-06T05:00:14.263Z,12
2022-12-06T05:01:14.286Z,12
2022-12-06T05:02:14.257Z,11
2022-12-06T05:03:14.256Z,12
2022-12-06T05:04:14.339Z,12
2022-12-06T05:05:14.258Z,11
2022-12-06T05:06:14.244Z,12
2022-12-06T05:07:14.253Z,12
2022-12-06T05:08:14.321Z,13
2022-12-06T05:09:14.239Z,11
2022-12-06T05:10:14.238Z,11
2022-12-06T05:11:14.287Z,13
2022-12-06T05:12:14.267Z,11
2022-12-06T05:13:14.257Z,12
2022-12-06T05:14:14.252Z,12
2022-12-06T05:15:15.993Z,11
2022-12-06T05:16:14.344Z,12
2022-12-06T05:17:14.255Z,12
2022-12-06T05:18:14.238Z,12
2022-12-06T05:19:14.241Z,13
2022-12-06T05:20:14.239Z,12
2022-12-06T05:21:14.241Z,13
2022-12-06T05:22:14.256Z,12
2022-12-06T05:23:14.256Z,11
2022-12-06T05:24:14.266Z,12
2022-12-06T05:25:14.251Z,12
2022-12-06T05:26:14.266Z,12
2022-12-06T05:27:14.269Z,12
2022-12-06T05:28:14.255Z,11
2022-12-06T05:29:14.256Z,12
2022-12-06T05:30:14.255Z,12
2022-12-06T05:31:14.284Z,12
2022-12-06T05:32:14.272Z,12
2022-12-06T05:33:14.247Z,11
2022-12-06T05:34:14.243Z,11
2022-12-06T05:35:14.254Z,12
2022-12-06T05:36:14.250Z,12
2022-12-06T05:37:14.249Z,12
2022-12-06T05:38:14.267Z,12
2022-12-06T05:40:14.246Z,11
2022-12-06T05:41:14.259Z,12
2022-12-06T05:42:22.077Z,11
2022-12-06T05:43:14.252Z,11
2022-12-06T05:44:14.258Z,10
2022-12-06T05:45:14.253Z,12
2022-12-06T05:46:14.343Z,11
2022-12-06T05:47:14.269Z,11
2022-12-06T05:48:14.250Z,11
2022-12-06T05:49:14.249Z,11
2022-12-06T05:51:14.257Z,11
2022-12-06T05:52:14.266Z,11
2022-12-06T05:53:14.260Z,12
2022-12-06T05:54:14.251Z,11
2022-12-06T05:55:14.267Z,12
2022-12-06T05:56:14.289Z,12
2022-12-06T05:57:14.262Z,11
2022-12-06T05:58:14.253Z,11
2022-12-06T05:59:14.265Z,11
2022-12-06T06:00:14.249Z,12
2022-12-06T06:01:14.267Z,11
2022-12-06T06:02:14.416Z,12
2022-12-06T06:03:14.385Z,11
2022-12-06T06:04:14.265Z,13
2022-12-06T06:05:14.253Z,11
2022-12-06T06:06:14.253Z,11
2022-12-06T06:07:14.272Z,10
2022-12-06T06:08:14.312Z,11
2022-12-06T06:09:14.292Z,11
2022-12-06T06:10:14.293Z,12
2022-12-06T06:11:14.276Z,12
2022-12-06T06:12:14.288Z,12
2022-12-06T06:13:14.262Z,11
2022-12-06T06:14:14.242Z,12
2022-12-06T06:15:14.263Z,12
2022-12-06T06:16:14.278Z,13
2022-12-06T06:17:14.276Z,11
2022-12-06T06:18:14.282Z,13
2022-12-06T06:19:14.262Z,11
2022-12-06T06:20:14.253Z,11
2022-12-06T06:21:14.264Z,10
2022-12-06T06:22:14.266Z,12
2022-12-06T06:23:14.256Z,11
2022-12-06T06:24:14.253Z,12
2022-12-06T06:25:14.257Z,12
2022-12-06T06:26:14.261Z,12
2022-12-06T06:27:14.251Z,12
2022-12-06T06:28:14.261Z,12
2022-12-06T06:29:14.251Z,14
2022-12-06T06:30:14.246Z,13
2022-12-06T06:31:14.263Z,12
2022-12-06T06:32:14.320Z,12
2022-12-06T06:33:14.275Z,12
2022-12-06T06:34:14.268Z,13
2022-12-06T06:35:14.267Z,12
2022-12-06T06:36:14.271Z,12
2022-12-06T06:37:14.261Z,12
2022-12-06T06:38:14.265Z,13
2022-12-06T06:39:14.270Z,12
2022-12-06T06:40:14.311Z,11
2022-12-06T06:41:14.287Z,12
2022-12-06T06:42:14.254Z,12
2022-12-06T06:43:14.276Z,12
2022-12-06T06:44:14.274Z,11
2022-12-06T06:45:14.284Z,11
2022-12-06T06:46:14.293Z,11
2022-12-06T06:47:14.258Z,10
2022-12-06T06:48:14.279Z,9
2022-12-06T06:49:14.259Z,9
2022-12-06T06:50:14.273Z,9
2022-12-06T06:51:14.269Z,9
2022-12-06T06:52:14.302Z,8
2022-12-06T06:53:14.281Z,8
2022-12-06T06:54:14.285Z,8
2022-12-06T06:55:14.273Z,7
2022-12-06T06:56:14.274Z,8
2022-12-06T06:57:17.549Z,7
2022-12-06T06:58:14.268Z,8
2022-12-06T06:59:14.265Z,7
2022-12-06T07:00:14.269Z,6
2022-12-06T07:01:14.364Z,6
2022-12-06T07:03:14.284Z,7
2022-12-06T07:04:14.267Z,7
2022-12-06T07:05:14.280Z,7
2022-12-06T07:06:14.281Z,7
2022-12-06T07:07:19.463Z,6
2022-12-06T07:08:14.340Z,7
2022-12-06T07:09:14.271Z,7
2022-12-06T07:10:14.280Z,7
2022-12-06T07:11:14.661Z,7
2022-12-06T07:12:14.342Z,7
2022-12-06T07:13:14.269Z,7
2022-12-06T07:14:14.266Z,7
2022-12-06T07:15:14.285Z,7
2022-12-06T07:16:14.364Z,7
2022-12-06T07:17:14.338Z,7
2022-12-06T07:18:14.270Z,7
2022-12-06T07:19:14.268Z,7
2022-12-06T07:20:14.260Z,7
2022-12-06T07:21:14.285Z,6
2022-12-06T07:22:14.276Z,7
2022-12-06T07:23:14.285Z,7
2022-12-06T07:24:14.275Z,6
2022-12-06T07:25:14.279Z,7
2022-12-06T07:26:14.309Z,8
2022-12-06T07:27:14.278Z,7
2022-12-06T07:28:14.265Z,8
2022-12-06T07:29:14.280Z,9
2022-12-06T07:30:16.901Z,7
2022-12-06T07:31:14.351Z,5
2022-12-06T07:32:14.288Z,5
2022-12-06T07:33:14.282Z,8
2022-12-06T07:34:14.273Z,8
2022-12-06T07:35:14.284Z,7
2022-12-06T07:36:14.565Z,7
2022-12-06T07:37:14.286Z,7
2022-12-06T07:38:14.317Z,7
2022-12-06T07:39:15.160Z,8
2022-12-06T07:40:14.289Z,7
2022-12-06T07:42:14.320Z,8
2022-12-06T07:43:14.367Z,8
2022-12-06T07:44:14.263Z,7
2022-12-06T07:45:14.276Z,7
2022-12-06T07:47:14.301Z,7
2022-12-06T07:48:14.299Z,8
2022-12-06T07:49:14.277Z,7
2022-12-06T07:50:17.831Z,7
2022-12-06T07:51:14.286Z,8
2022-12-06T07:52:14.291Z,8
2022-12-06T07:53:14.305Z,7
2022-12-06T07:54:14.314Z,8
2022-12-06T07:55:14.300Z,9
2022-12-06T07:56:14.285Z,8
2022-12-06T07:57:14.288Z,9
2022-12-06T07:58:14.321Z,8
2022-12-06T07:59:14.279Z,8
2022-12-06T08:00:14.288Z,8
2022-12-06T08:01:14.305Z,9
2022-12-06T08:02:14.307Z,8
2022-12-06T08:03:14.288Z,7
2022-12-06T08:04:14.352Z,7
2022-12-06T08:05:14.284Z,7
2022-12-06T08:06:14.285Z,7
2022-12-06T08:07:14.283Z,7
2022-12-06T08:08:14.368Z,7
2022-12-06T08:09:14.293Z,6
2022-12-06T08:10:14.316Z,7
2022-12-06T08:11:14.280Z,6
2022-12-06T08:12:14.304Z,6
2022-12-06T08:13:14.285Z,6
2022-12-06T08:14:14.346Z,7
2022-12-06T08:15:14.285Z,7
2022-12-06T08:16:14.320Z,7
2022-12-06T08:17:14.289Z,6
2022-12-06T08:18:14.288Z,6
2022-12-06T08:19:14.297Z,6
2022-12-06T08:20:14.305Z,6
2022-12-06T08:21:14.314Z,6
2022-12-06T08:22:14.310Z,6
2022-12-06T08:23:14.298Z,5
2022-12-06T08:24:14.310Z,6
2022-12-06T08:25:14.302Z,6
2022-12-06T08:26:14.285Z,6
2022-12-06T08:27:14.292Z,5
2022-12-06T08:28:14.297Z,6
2022-12-06T08:29:14.278Z,6
2022-12-06T08:30:14.282Z,6
2022-12-06T08:31:14.382Z,6
2022-12-06T08:32:14.287Z,6
2022-12-06T08:33:14.304Z,6
2022-12-06T08:34:14.308Z,6
2022-12-06T08:35:14.301Z,6
2022-12-06T08:36:14.316Z,7
2022-12-06T08:37:14.290Z,5
2022-12-06T08:38:14.313Z,6
2022-12-06T08:39:14.308Z,6
2022-12-06T08:40:14.303Z,5
2022-12-06T08:41:14.295Z,6
2022-12-06T08:42:14.303Z,6
2022-12-06T08:43:14.292Z,6
2022-12-06T08:44:14.312Z,6
2022-12-06T08:45:14.332Z,6
2022-12-06T08:46:14.372Z,6
2022-12-06T08:47:14.286Z,6
2022-12-06T08:48:14.297Z,6
2022-12-06T08:49:14.296Z,5
2022-12-06T08:50:14.301Z,6
2022-12-06T08:51:14.307Z,5
2022-12-06T08:52:14.290Z,5
2022-12-06T08:53:14.680Z,5
2022-12-06T08:54:14.307Z,6
2022-12-06T08:55:14.281Z,6
2022-12-06T08:56:14.302Z,6
2022-12-06T08:57:14.304Z,5
2022-12-06T08:58:14.322Z,6
2022-12-06T08:59:14.312Z,6
2022-12-06T09:00:14.308Z,6
2022-12-06T09:01:14.320Z,5
2022-12-06T09:02:14.387Z,5
2022-12-06T09:03:14.362Z,6
2022-12-06T09:04:14.394Z,5
2022-12-06T09:05:14.316Z,5
2022-12-06T09:06:14.297Z,6
2022-12-06T09:07:14.293Z,6
2022-12-06T09:08:14.408Z,4
2022-12-06T09:09:14.318Z,4
2022-12-06T09:10:14.307Z,4
2022-12-06T09:11:14.323Z,4
2022-12-06T09:12:14.335Z,4
2022-12-06T09:13:14.294Z,4
2022-12-06T09:15:14.297Z,4
2022-12-06T09:16:14.425Z,4
2022-12-06T09:17:14.304Z,4
2022-12-06T09:18:14.301Z,3
2022-12-06T09:19:14.295Z,4
2022-12-06T09:20:14.294Z,3
2022-12-06T09:21:14.291Z,3
2022-12-06T09:22:14.302Z,3
2022-12-06T09:23:14.327Z,4
2022-12-06T09:24:14.316Z,3
2022-12-06T09:25:14.303Z,3
2022-12-06T09:26:14.304Z,3
2022-12-06T09:27:14.301Z,3
2022-12-06T09:28:14.303Z,3
2022-12-06T09:29:14.303Z,4
2022-12-06T09:30:14.311Z,3
2022-12-06T09:31:14.361Z,3
2022-12-06T09:32:14.325Z,4
2022-12-06T09:33:14.303Z,4
2022-12-06T09:34:14.302Z,4
2022-12-06T09:36:14.326Z,4
2022-12-06T09:37:14.390Z,4
2022-12-06T09:38:14.327Z,4
2022-12-06T09:39:14.323Z,5
2022-12-06T09:40:14.318Z,4
2022-12-06T09:41:14.337Z,4
2022-12-06T09:42:14.319Z,4
2022-12-06T09:43:14.332Z,4
2022-12-06T09:44:14.339Z,4
2022-12-06T09:45:14.336Z,4
2022-12-06T09:46:14.372Z,4
2022-12-06T09:47:14.348Z,4
2022-12-06T09:48:14.325Z,4
2022-12-06T09:49:14.343Z,4
2022-12-06T09:50:14.324Z,4
2022-12-06T09:51:14.313Z,4
2022-12-06T09:52:14.300Z,4
2022-12-06T09:53:14.328Z,4
2022-12-06T09:54:14.334Z,4
2022-12-06T09:55:14.323Z,4
2022-12-06T09:56:14.313Z,4
2022-12-06T09:57:14.309Z,4
2022-12-06T09:58:14.312Z,4
2022-12-06T09:59:14.324Z,5
2022-12-06T10:00:18.961Z,4
2022-12-06T10:01:14.309Z,5
2022-12-06T10:02:14.416Z,5
2022-12-06T10:03:14.386Z,5
2022-12-06T10:04:14.693Z,4
2022-12-06T10:05:14.310Z,5
2022-12-06T10:06:14.325Z,4
2022-12-06T10:07:14.333Z,4
2022-12-06T10:08:14.462Z,4
2022-12-06T10:09:14.367Z,4
2022-12-06T10:10:14.336Z,4
2022-12-06T10:11:14.329Z,4
2022-12-06T10:12:14.341Z,4
2022-12-06T10:13:14.327Z,4
2022-12-06T10:14:14.338Z,4
2022-12-06T10:15:14.341Z,4
2022-12-06T10:16:14.373Z,5
2022-12-06T10:17:14.321Z,4
2022-12-06T10:18:14.331Z,4
2022-12-06T10:19:14.328Z,4
2022-12-06T10:20:14.331Z,5
2022-12-06T10:21:14.328Z,5
2022-12-06T10:22:14.323Z,4
2022-12-06T10:23:14.317Z,5
2022-12-06T10:24:14.333Z,5
2022-12-06T10:25:14.340Z,4
2022-12-06T10:26:14.336Z,4
2022-12-06T10:27:14.309Z,5
2022-12-06T10:28:14.341Z,4
2022-12-06T10:29:14.332Z,4
2022-12-06T10:30:14.341Z,4
2022-12-06T10:31:14.340Z,4
2022-12-06T10:32:14.337Z,4
2022-12-06T10:33:14.354Z,4
2022-12-06T10:34:14.333Z,5
2022-12-06T10:35:14.364Z,4
2022-12-06T10:36:14.345Z,4
2022-12-06T10:37:14.315Z,4
2022-12-06T10:38:14.324Z,4
2022-12-06T10:39:14.323Z,4
2022-12-06T10:40:14.318Z,4
2022-12-06T10:41:14.316Z,4
2022-12-06T10:42:14.323Z,5
2022-12-06T10:43:14.324Z,5
2022-12-06T10:44:14.331Z,4
2022-12-06T10:45:14.332Z,4
2022-12-06T10:46:14.394Z,4
2022-12-06T10:47:14.384Z,4
2022-12-06T10:48:14.319Z,4
2022-12-06T10:49:14.340Z,4
2022-12-06T10:50:14.321Z,4
2022-12-06T10:51:14.327Z,4
2022-12-06T10:52:14.344Z,4
2022-12-06T10:53:14.342Z,4
2022-12-06T10:54:14.334Z,4
2022-12-06T10:55:14.341Z,4
2022-12-06T10:56:14.342Z,4
2022-12-06T10:57:14.367Z,4
2022-12-06T10:58:14.343Z,4
2022-12-06T10:59:14.338Z,4
2022-12-06T11:00:15.753Z,4
2022-12-06T11:01:14.336Z,4
2022-12-06T11:02:14.363Z,4
2022-12-06T11:03:14.326Z,4
2022-12-06T11:04:14.329Z,4
2022-12-06T11:05:14.345Z,4
2022-12-06T11:06:14.327Z,4
2022-12-06T11:07:14.360Z,4
2022-12-06T11:08:14.380Z,3
2022-12-06T11:09:14.346Z,5
2022-12-06T11:10:15.166Z,4
2022-12-06T11:11:14.345Z,4
2022-12-06T11:12:14.392Z,4
2022-12-06T11:13:14.330Z,4
2022-12-06T11:14:14.342Z,3
2022-12-06T11:15:14.346Z,4
2022-12-06T11:16:14.435Z,4
2022-12-06T11:17:14.324Z,3
2022-12-06T11:18:14.326Z,3
2022-12-06T11:19:14.333Z,3
2022-12-06T11:20:14.389Z,4
2022-12-06T11:21:14.334Z,3
2022-12-06T11:22:14.326Z,4
2022-12-06T11:23:14.333Z,3
2022-12-06T11:24:14.354Z,4
2022-12-06T11:25:14.331Z,4
2022-12-06T11:26:14.326Z,3
2022-12-06T11:27:14.330Z,3
2022-12-06T11:28:14.351Z,3
2022-12-06T11:29:14.376Z,4
2022-12-06T11:30:19.524Z,4
2022-12-06T11:31:14.374Z,3
2022-12-06T11:32:14.339Z,3
2022-12-06T11:33:14.338Z,4
2022-12-06T11:34:14.353Z,3
2022-12-06T11:35:14.348Z,4
2022-12-06T11:36:14.349Z,4
2022-12-06T11:37:14.337Z,3
2022-12-06T11:38:14.329Z,4
2022-12-06T11:39:14.326Z,3
2022-12-06T11:40:14.329Z,3
2022-12-06T11:41:14.361Z,4
2022-12-06T11:42:14.350Z,4
2022-12-06T11:43:14.350Z,4
2022-12-06T11:44:14.340Z,3
2022-12-06T11:45:14.336Z,4
2022-12-06T11:46:14.379Z,4
2022-12-06T11:47:14.342Z,4
2022-12-06T11:48:14.353Z,4
2022-12-06T11:49:14.351Z,4
2022-12-06T11:50:17.088Z,4
2022-12-06T11:51:14.377Z,3
2022-12-06T11:52:14.349Z,3
2022-12-06T11:53:14.359Z,3
2022-12-06T11:54:14.349Z,3
2022-12-06T11:55:14.360Z,3
2022-12-06T11:56:14.363Z,3
2022-12-06T11:57:17.912Z,3
2022-12-06T11:58:14.357Z,3
2022-12-06T11:59:14.347Z,3
2022-12-06T12:00:14.340Z,4
2022-12-06T12:01:14.380Z,3
2022-12-06T12:02:19.401Z,3
2022-12-06T12:03:14.433Z,3
2022-12-06T12:04:14.366Z,3
2022-12-06T12:05:14.356Z,3
2022-12-06T12:06:14.417Z,3
2022-12-06T12:07:14.331Z,3
2022-12-06T12:08:14.417Z,3
2022-12-06T12:09:14.358Z,3
2022-12-06T12:10:20.837Z,3
2022-12-06T12:11:14.347Z,3
2022-12-06T12:12:14.341Z,3
2022-12-06T12:13:14.333Z,3
2022-12-06T12:14:14.348Z,3
2022-12-06T12:15:14.342Z,3
2022-12-06T12:16:14.389Z,3
2022-12-06T12:17:14.341Z,3
2022-12-06T12:18:14.344Z,3
2022-12-06T12:19:14.364Z,4
2022-12-06T12:20:14.350Z,3
2022-12-06T12:21:14.342Z,3
2022-12-06T12:22:14.376Z,3
2022-12-06T12:23:14.346Z,3
2022-12-06T12:24:14.351Z,3
2022-12-06T12:25:19.320Z,4
2022-12-06T12:26:14.345Z,3
2022-12-06T12:27:20.419Z,3
2022-12-06T12:28:14.338Z,3
2022-12-06T12:29:14.345Z,3
2022-12-06T12:30:14.343Z,4
2022-12-06T12:31:14.350Z,3
2022-12-06T12:32:14.418Z,4
2022-12-06T12:33:14.364Z,3
2022-12-06T12:35:14.350Z,4
2022-12-06T12:36:14.341Z,4
2022-12-06T12:37:14.345Z,3
2022-12-06T12:38:14.346Z,3
2022-12-06T12:39:14.348Z,4
2022-12-06T12:40:14.358Z,4
2022-12-06T12:41:14.347Z,3
2022-12-06T12:42:14.339Z,4
2022-12-06T12:43:14.350Z,4
2022-12-06T12:44:36.523Z,3
2022-12-06T12:45:14.358Z,3
2022-12-06T12:46:14.412Z,3
2022-12-06T12:47:14.378Z,4
2022-12-06T12:48:14.357Z,3
2022-12-06T12:49:14.392Z,4
2022-12-06T12:50:14.422Z,3
2022-12-06T12:51:14.374Z,3
2022-12-06T12:52:14.377Z,3
2022-12-06T12:53:14.405Z,3
2022-12-06T12:54:14.370Z,3
2022-12-06T12:55:14.366Z,3
2022-12-06T12:56:14.370Z,2
2022-12-06T12:57:14.367Z,3
2022-12-06T12:58:14.361Z,3
2022-12-06T12:59:14.353Z,3
2022-12-06T13:00:14.436Z,3
2022-12-06T13:01:14.462Z,3
2022-12-06T13:02:14.460Z,3
2022-12-06T13:03:48.965Z,3
2022-12-06T13:04:14.354Z,3
2022-12-06T13:05:32.596Z,3
2022-12-06T13:06:14.346Z,3
2022-12-06T13:07:14.350Z,3
2022-12-06T13:08:14.446Z,3
2022-12-06T13:11:14.382Z,2
2022-12-06T13:12:14.358Z,4
2022-12-06T13:13:14.365Z,3
2022-12-06T13:14:14.375Z,3
2022-12-06T13:15:14.353Z,3
2022-12-06T13:16:14.427Z,3
2022-12-06T13:17:14.455Z,3
2022-12-06T13:18:14.369Z,3
2022-12-06T13:19:14.380Z,3
2022-12-06T13:20:14.374Z,3
2022-12-06T13:21:14.380Z,3
2022-12-06T13:22:14.353Z,4
2022-12-06T13:23:14.361Z,3
2022-12-06T13:24:14.387Z,3
2022-12-06T13:25:14.392Z,3
2022-12-06T13:26:14.386Z,3
2022-12-06T13:27:14.385Z,3
2022-12-06T13:28:14.370Z,3
2022-12-06T13:29:14.365Z,3
2022-12-06T13:31:14.388Z,3
2022-12-06T13:32:14.364Z,3
2022-12-06T13:33:20.537Z,3
2022-12-06T13:34:14.357Z,3
2022-12-06T13:35:14.375Z,3
2022-12-06T13:36:14.375Z,3
2022-12-06T13:37:14.380Z,3
2022-12-06T13:38:14.412Z,3
2022-12-06T13:39:14.386Z,3
2022-12-06T13:40:14.370Z,3
2022-12-06T13:41:14.360Z,3
2022-12-06T13:43:14.390Z,3
2022-12-06T13:44:14.360Z,3
2022-12-06T13:45:14.384Z,3
2022-12-06T13:46:14.440Z,3
2022-12-06T13:47:14.366Z,3
2022-12-06T13:48:14.368Z,3
2022-12-06T13:49:14.369Z,3
2022-12-06T13:50:14.370Z,3
2022-12-06T13:52:14.393Z,3
2022-12-06T13:54:14.384Z,3
2022-12-06T13:55:17.379Z,3
2022-12-06T13:56:14.393Z,3
2022-12-06T13:57:14.389Z,4
2022-12-06T13:58:14.368Z,4
2022-12-06T13:59:14.360Z,4
2022-12-06T14:00:14.371Z,4
2022-12-06T14:01:14.409Z,3
2022-12-06T14:02:14.377Z,4
2022-12-06T14:03:14.382Z,4
2022-12-06T14:04:14.365Z,4
2022-12-06T14:06:16.016Z,4
2022-12-06T14:08:14.444Z,4
2022-12-06T14:09:14.377Z,4
2022-12-06T14:10:14.484Z,4
2022-12-06T14:11:14.376Z,4
2022-12-06T14:12:14.378Z,4
2022-12-06T14:13:14.390Z,4
2022-12-06T14:14:14.395Z,4
2022-12-06T14:15:14.378Z,4
2022-12-06T14:16:14.387Z,4
2022-12-06T14:17:32.106Z,3
2022-12-06T14:18:14.464Z,4
2022-12-06T14:19:14.369Z,4
2022-12-06T14:20:14.382Z,4
2022-12-06T14:21:14.399Z,4
2022-12-06T14:22:14.435Z,4
2022-12-06T14:23:14.377Z,4
2022-12-06T14:24:14.391Z,4
2022-12-06T14:25:14.395Z,3
2022-12-06T14:26:14.420Z,4
2022-12-06T14:27:14.382Z,3
2022-12-06T14:28:14.372Z,4
2022-12-06T14:29:14.384Z,4
2022-12-06T14:30:14.369Z,3
2022-12-06T14:31:14.440Z,3
2022-12-06T14:33:14.375Z,3
2022-12-06T14:34:14.369Z,4
2022-12-06T14:35:14.399Z,3
2022-12-06T14:36:17.203Z,4
2022-12-06T14:37:14.390Z,3
2022-12-06T14:38:14.382Z,3
2022-12-06T14:39:14.382Z,3
2022-12-06T14:40:37.592Z,3
2022-12-06T14:41:14.381Z,4
2022-12-06T14:42:14.399Z,3
2022-12-06T14:43:14.398Z,3
2022-12-06T14:44:14.383Z,3
2022-12-06T14:45:14.404Z,3
2022-12-06T14:46:14.526Z,3
2022-12-06T14:47:14.377Z,3
2022-12-06T14:48:14.384Z,4
2022-12-06T14:49:14.399Z,3
2022-12-06T14:50:14.382Z,4
2022-12-06T14:51:16.758Z,3
2022-12-06T14:52:14.389Z,3
2022-12-06T14:53:14.396Z,4
2022-12-06T14:54:14.397Z,4
2022-12-06T14:55:14.376Z,4
2022-12-06T14:56:14.386Z,3
2022-12-06T14:58:14.385Z,4
2022-12-06T14:59:14.390Z,4
2022-12-06T15:00:18.443Z,3